Time;durP1;ratioP1;P1;durP2;ratioP2;P2;SDS_P1;SDS_P2;PMS_P1;PMS_P2;Temp;Humidity;BMP_temperature;BMP_pressure;BME280_temperature;BME280_humidity;BME280_pressure;Samples;Min_cycle;Max_cycle;Signal;HPM_P1;HPM_P2
2021/06/04 00:00:25;;;;;;;31.45;13.93;;;12.80;99.90;;;;;;5115717;28;20189;-80
2021/06/04 00:02:52;;;;;;;27.73;13.27;;;12.80;99.90;;;;;;5113976;28;20268;-79
2021/06/04 00:05:26;;;;;;;30.13;12.85;;;12.70;99.90;;;;;;5115910;28;20182;-80
2021/06/04 00:07:52;;;;;;;25.40;13.48;;;12.70;99.90;;;;;;5115204;28;20158;-80
2021/06/04 00:10:25;;;;;;;23.50;12.50;;;12.70;99.90;;;;;;5115216;28;20631;-80
2021/06/04 00:12:51;;;;;;;27.58;13.07;;;12.70;99.90;;;;;;5115058;28;20185;-80
2021/06/04 00:15:23;;;;;;;33.28;12.75;;;12.60;99.90;;;;;;5115041;28;20657;-80
2021/06/04 00:17:49;;;;;;;28.23;12.80;;;12.60;99.90;;;;;;5114839;28;20630;-80
2021/06/04 00:20:21;;;;;;;26.75;13.23;;;12.50;99.90;;;;;;5113948;28;20178;-80
2021/06/04 00:22:47;;;;;;;27.30;13.77;;;12.50;99.90;;;;;;5114852;28;20150;-80
2021/06/04 00:25:12;;;;;;;26.17;12.40;;;12.50;99.90;;;;;;5115277;28;20649;-80
2021/06/04 00:27:38;;;;;;;26.23;12.32;;;12.50;99.90;;;;;;5113467;28;20185;-80
2021/06/04 00:30:06;;;;;;;23.55;13.48;;;12.40;99.90;;;;;;5113647;28;20242;-80
2021/06/04 00:32:32;;;;;;;26.58;12.73;;;12.40;99.90;;;;;;5114911;28;20200;-81
2021/06/04 00:34:57;;;;;;;22.92;12.75;;;12.40;99.90;;;;;;5096713;28;20737;-80
2021/06/04 00:37:23;;;;;;;24.00;12.35;;;12.30;99.90;;;;;;5113756;28;20515;-81
2021/06/04 00:39:49;;;;;;;29.13;12.88;;;12.30;99.90;;;;;;5114570;28;20258;-80
2021/06/04 00:42:19;;;;;;;25.60;11.98;;;12.30;99.90;;;;;;5113735;28;20198;-80
2021/06/04 00:44:47;;;;;;;21.85;11.38;;;12.30;99.90;;;;;;5114558;28;20158;-80
2021/06/04 00:47:13;;;;;;;21.00;11.43;;;12.20;99.90;;;;;;5113595;28;20238;-80
2021/06/04 00:49:40;;;;;;;21.20;12.40;;;12.20;99.90;;;;;;5113185;28;20599;-80
2021/06/04 00:52:28;;;;;;;23.10;11.95;;;12.20;99.90;;;;;;5096433;28;20185;-80
2021/06/04 00:54:56;;;;;;;27.08;12.35;;;12.10;99.90;;;;;;5113966;27;20198;-80
2021/06/04 00:57:23;;;;;;;23.05;11.88;;;12.10;99.90;;;;;;5114727;28;20208;-80
2021/06/04 00:59:49;;;;;;;22.23;11.73;;;12.10;99.90;;;;;;5113974;28;20705;-80
2021/06/04 01:02:22;;;;;;;21.88;11.25;;;12.10;99.90;;;;;;5114713;28;20265;-80
2021/06/04 01:04:48;;;;;;;29.17;12.18;;;12.00;99.90;;;;;;5114193;28;20182;-81
2021/06/04 01:07:26;;;;;;;20.58;11.23;;;12.00;99.90;;;;;;5113349;28;20265;-80
2021/06/04 01:10:13;;;;;;;20.00;10.98;;;12.00;99.90;;;;;;5114119;28;20168;-81
2021/06/04 01:12:57;;;;;;;22.88;12.13;;;11.90;99.90;;;;;;5114169;28;20309;-81
2021/06/04 01:15:54;;;;;;;19.23;11.07;;;11.90;99.90;;;;;;5113345;28;20552;-81
2021/06/04 01:18:36;;;;;;;23.67;11.52;;;11.80;99.90;;;;;;5114010;28;20177;-81
2021/06/04 01:21:25;;;;;;;22.88;11.68;;;11.80;99.90;;;;;;5112587;28;20185;-81
2021/06/04 01:24:09;;;;;;;19.58;10.85;;;11.80;99.90;;;;;;5114124;28;20161;-81
2021/06/04 01:26:34;;;;;;;22.90;11.38;;;11.80;99.90;;;;;;5114214;28;20166;-81
2021/06/04 01:29:10;;;;;;;19.52;10.75;;;11.70;99.90;;;;;;5112346;28;20185;-81
2021/06/04 01:31:50;;;;;;;21.30;11.18;;;11.70;99.90;;;;;;5114446;28;20536;-81
2021/06/04 01:34:23;;;;;;;25.63;12.30;;;11.70;99.90;;;;;;5114423;28;20618;-81
2021/06/04 01:36:54;;;;;;;21.65;11.43;;;11.60;99.90;;;;;;5113668;28;20159;-81
2021/06/04 01:39:28;;;;;;;23.77;11.73;;;11.60;99.90;;;;;;5113909;28;20170;-81
2021/06/04 01:41:57;;;;;;;18.42;11.80;;;11.60;99.90;;;;;;5112281;28;20173;-81
2021/06/04 01:44:56;;;;;;;19.98;11.90;;;11.50;99.90;;;;;;5114087;28;20174;-81
2021/06/04 01:47:34;;;;;;;20.30;11.98;;;11.60;99.90;;;;;;5113579;28;20177;-81
2021/06/04 01:50:23;;;;;;;22.00;12.15;;;11.50;99.90;;;;;;5112324;28;20208;-81
2021/06/04 01:52:49;;;;;;;19.30;11.60;;;11.50;99.90;;;;;;5111667;28;20182;-81
2021/06/04 01:55:27;;;;;;;23.55;12.77;;;11.40;99.90;;;;;;5113601;28;20197;-81
2021/06/04 01:58:06;;;;;;;21.00;12.50;;;11.30;99.90;;;;;;5113327;28;20615;-81
2021/06/04 02:00:43;;;;;;;27.45;12.93;;;11.30;99.90;;;;;;5113428;28;20693;-81
2021/06/04 02:03:15;;;;;;;20.47;12.27;;;11.30;99.90;;;;;;5113792;28;20158;-81
2021/06/04 02:05:41;;;;;;;22.08;11.80;;;11.30;99.90;;;;;;5113487;28;20173;-81
2021/06/04 02:08:12;;;;;;;23.97;11.57;;;11.30;99.90;;;;;;5111892;28;20223;-81
2021/06/04 02:10:45;;;;;;;23.58;12.63;;;11.30;99.90;;;;;;5115388;28;20610;-81
2021/06/04 02:13:12;;;;;;;25.08;13.15;;;11.30;99.90;;;;;;5117615;28;20190;-81
2021/06/04 02:15:44;;;;;;;23.10;12.52;;;11.30;99.90;;;;;;5116399;28;20670;-81
2021/06/04 02:18:17;;;;;;;21.25;12.35;;;11.20;99.90;;;;;;5117460;28;20169;-81
2021/06/04 02:20:54;;;;;;;21.92;12.60;;;11.20;99.90;;;;;;5116640;28;20185;-81
2021/06/04 02:23:53;;;;;;;27.00;12.32;;;11.20;99.90;;;;;;5117713;28;20170;-81
2021/06/04 02:26:28;;;;;;;21.98;12.75;;;11.20;99.90;;;;;;5117380;28;20174;-81
2021/06/04 02:29:06;;;;;;;21.08;11.80;;;11.20;99.90;;;;;;5117170;28;20165;-81
2021/06/04 02:31:48;;;;;;;21.53;11.87;;;11.10;99.90;;;;;;5117432;28;20214;-81
2021/06/04 02:34:33;;;;;;;18.83;10.85;;;11.10;99.90;;;;;;5117117;28;20637;-81
2021/06/04 02:37:20;;;;;;;20.88;11.45;;;11.10;99.90;;;;;;5117417;28;20182;-81
2021/06/04 02:40:00;;;;;;;20.33;11.17;;;11.10;99.90;;;;;;5116017;28;20181;-80
2021/06/04 02:42:40;;;;;;;23.73;11.98;;;11.00;99.90;;;;;;5117424;28;20166;-80
2021/06/04 02:45:17;;;;;;;24.85;12.25;;;11.10;99.90;;;;;;5116714;28;20538;-81
2021/06/04 02:47:47;;;;;;;26.10;12.70;;;11.00;99.90;;;;;;5115907;28;20178;-80
2021/06/04 02:50:29;;;;;;;21.37;12.40;;;11.00;99.90;;;;;;5116973;28;20625;-81
2021/06/04 02:53:11;;;;;;;20.90;11.52;;;11.00;99.90;;;;;;5116695;27;20193;-81
2021/06/04 02:55:38;;;;;;;23.45;11.98;;;11.00;99.90;;;;;;5116754;28;20535;-80
2021/06/04 02:58:03;;;;;;;25.65;11.73;;;11.00;99.90;;;;;;5098278;28;20192;-80
2021/06/04 03:00:38;;;;;;;23.33;12.13;;;11.00;99.90;;;;;;5115738;28;20177;-80
2021/06/04 03:03:05;;;;;;;21.17;12.30;;;11.10;99.90;;;;;;5116749;28;20637;-80
2021/06/04 03:05:34;;;;;;;19.88;11.85;;;11.00;99.90;;;;;;5115723;28;20208;-80
2021/06/04 03:08:00;;;;;;;21.17;12.20;;;11.00;99.90;;;;;;5116060;28;20265;-81
2021/06/04 03:10:49;;;;;;;21.80;12.53;;;11.00;99.90;;;;;;5098637;28;20185;-82
2021/06/04 03:13:19;;;;;;;23.83;12.03;;;11.00;99.90;;;;;;5115990;28;20194;-82
2021/06/04 03:15:49;;;;;;;21.50;11.40;;;11.00;99.90;;;;;;5116491;28;20343;-82
2021/06/04 03:18:19;;;;;;;24.92;13.88;;;11.00;99.90;;;;;;5114926;27;20402;-82
2021/06/04 03:20:47;;;;;;;24.33;11.53;;;11.00;99.90;;;;;;5116614;28;20169;-82
2021/06/04 03:23:17;;;;;;;22.80;11.90;;;11.00;99.90;;;;;;5116304;28;20650;-82
2021/06/04 03:25:46;;;;;;;21.25;12.27;;;11.00;99.90;;;;;;5116357;28;20231;-80
2021/06/04 03:28:14;;;;;;;17.17;12.10;;;11.10;99.90;;;;;;5115677;28;20189;-80
2021/06/04 03:30:42;;;;;;;24.00;12.20;;;11.00;99.90;;;;;;5116362;28;20253;-80
2021/06/04 03:33:11;;;;;;;20.97;12.17;;;10.90;99.90;;;;;;5115772;28;20208;-80
2021/06/04 03:35:37;;;;;;;21.25;11.77;;;11.00;99.90;;;;;;5116026;28;20198;-80
2021/06/04 03:38:04;;;;;;;23.92;12.57;;;11.00;99.90;;;;;;5116024;28;20690;-80
2021/06/04 03:40:31;;;;;;;19.42;11.82;;;11.00;99.90;;;;;;5115746;28;20219;-80
2021/06/04 03:42:59;;;;;;;22.27;11.35;;;11.00;99.90;;;;;;5097738;28;20178;-81
2021/06/04 03:45:37;;;;;;;21.25;12.32;;;11.00;99.90;;;;;;5115977;28;20708;-80
2021/06/04 03:48:08;;;;;;;23.00;11.27;;;11.00;99.90;;;;;;5115677;28;20170;-80
2021/06/04 03:50:34;;;;;;;22.70;12.00;;;11.00;99.90;;;;;;5116038;28;20165;-80
2021/06/04 03:53:00;;;;;;;20.63;13.27;;;11.00;99.90;;;;;;5115529;28;20683;-81
2021/06/04 03:55:27;;;;;;;20.60;11.27;;;11.00;99.90;;;;;;5114314;28;20210;-80
2021/06/04 03:57:54;;;;;;;17.37;10.67;;;11.10;99.90;;;;;;5115883;28;20184;-80
2021/06/04 04:00:34;;;;;;;24.05;11.40;;;11.10;99.90;;;;;;5114186;28;20257;-81
2021/06/04 04:03:01;;;;;;;19.55;11.00;;;11.10;99.90;;;;;;5114307;28;20166;-80
2021/06/04 04:05:27;;;;;;;18.70;10.60;;;11.20;99.90;;;;;;5115917;27;20239;-80
2021/06/04 04:07:53;;;;;;;21.83;10.90;;;11.20;99.90;;;;;;5114397;28;20174;-80
2021/06/04 04:10:22;;;;;;;20.30;9.85;;;11.20;99.90;;;;;;5114050;28;20565;-81
2021/06/04 04:12:49;;;;;;;25.02;10.10;;;11.20;99.90;;;;;;5115805;28;20270;-80
2021/06/04 04:15:19;;;;;;;14.27;10.32;;;11.20;99.90;;;;;;5115042;28;20213;-81
2021/06/04 04:17:47;;;;;;;16.05;9.57;;;11.30;99.90;;;;;;5115579;28;20174;-80
2021/06/04 04:20:23;;;;;;;19.08;9.85;;;11.40;99.90;;;;;;5114419;28;20260;-80
2021/06/04 04:22:49;;;;;;;17.47;11.20;;;11.40;99.90;;;;;;5115283;28;20176;-80
2021/06/04 04:25:16;;;;;;;16.77;10.43;;;11.40;99.90;;;;;;5114706;27;20655;-80
2021/06/04 04:27:42;;;;;;;17.10;10.77;;;11.40;99.90;;;;;;5115096;28;20182;-80
2021/06/04 04:30:10;;;;;;;16.08;9.82;;;11.50;99.90;;;;;;5114519;28;20227;-80
2021/06/04 04:32:37;;;;;;;18.40;10.45;;;11.60;99.90;;;;;;5114139;28;20174;-81
2021/06/04 04:35:06;;;;;;;16.92;10.27;;;11.70;99.90;;;;;;5112981;28;20194;-80
2021/06/04 04:37:31;;;;;;;18.48;10.20;;;11.80;99.90;;;;;;5112104;28;20182;-80
2021/06/04 04:39:57;;;;;;;18.90;10.00;;;11.80;99.90;;;;;;5114727;28;20231;-79
2021/06/04 04:42:23;;;;;;;20.98;10.45;;;11.90;99.90;;;;;;5114090;28;20585;-79
2021/06/04 04:44:49;;;;;;;18.42;10.73;;;12.00;99.90;;;;;;5114856;28;20619;-79
2021/06/04 04:47:17;;;;;;;15.57;10.13;;;12.10;99.90;;;;;;5114539;28;20182;-79
2021/06/04 04:49:43;;;;;;;14.45;10.13;;;12.20;99.90;;;;;;5114875;28;20170;-80
2021/06/04 04:52:13;;;;;;;18.65;11.45;;;12.30;99.90;;;;;;5113895;28;20674;-79
2021/06/04 04:54:52;;;;;;;22.40;10.38;;;12.40;99.90;;;;;;5114897;28;20198;-79
2021/06/04 04:57:19;;;;;;;50.25;25.48;;;12.50;99.90;;;;;;5113746;28;20186;-79
2021/06/04 04:59:45;;;;;;;18.33;10.05;;;12.50;99.90;;;;;;5104722;28;20182;-80
2021/06/04 05:02:12;;;;;;;16.88;9.40;;;12.60;99.90;;;;;;5108259;28;20693;-80
2021/06/04 05:04:38;;;;;;;20.13;9.60;;;12.70;99.90;;;;;;5108647;28;20185;-79
2021/06/04 05:07:05;;;;;;;14.02;9.65;;;12.80;99.90;;;;;;5101391;28;20651;-79
2021/06/04 05:09:31;;;;;;;15.40;9.63;;;12.90;99.90;;;;;;5110261;28;20174;-79
2021/06/04 05:11:56;;;;;;;20.15;10.07;;;13.00;99.90;;;;;;5112130;28;20238;-80
2021/06/04 05:14:22;;;;;;;19.50;10.05;;;13.20;99.90;;;;;;5110716;28;20366;-80
2021/06/04 05:16:48;;;;;;;19.73;9.52;;;13.30;99.90;;;;;;5111746;28;20266;-79
2021/06/04 05:19:13;;;;;;;18.50;9.38;;;13.40;99.90;;;;;;5111596;28;20732;-79
2021/06/04 05:21:39;;;;;;;15.40;9.27;;;13.40;99.90;;;;;;5093265;28;20530;-79
2021/06/04 05:24:06;;;;;;;19.45;9.70;;;13.40;99.90;;;;;;5093661;28;20579;-80
2021/06/04 05:26:33;;;;;;;23.02;9.88;;;13.50;99.90;;;;;;5111327;28;20239;-80
2021/06/04 05:28:58;;;;;;;15.77;9.93;;;13.60;99.90;;;;;;5123482;28;20257;-80
2021/06/04 05:31:24;;;;;;;24.10;10.40;;;13.80;99.90;;;;;;5120021;28;20213;-80
2021/06/04 05:33:52;;;;;;;18.55;9.57;;;13.80;99.90;;;;;;5123701;28;20182;-80
2021/06/04 05:36:29;;;;;;;17.85;9.55;;;13.90;99.90;;;;;;5112253;28;20220;-79
2021/06/04 05:38:55;;;;;;;17.38;10.57;;;14.00;99.90;;;;;;5117098;28;20226;-79
2021/06/04 05:41:21;;;;;;;19.58;9.13;;;14.20;99.90;;;;;;5110087;28;20254;-80
2021/06/04 05:43:48;;;;;;;19.95;9.05;;;14.30;99.90;;;;;;5110450;28;20713;-79
2021/06/04 05:46:16;;;;;;;17.42;8.43;;;14.40;99.90;;;;;;5110872;28;20190;-80
2021/06/04 05:48:41;;;;;;;18.35;9.45;;;14.60;99.90;;;;;;5099020;28;20698;-80
2021/06/04 05:51:12;;;;;;;24.92;9.45;;;14.80;99.90;;;;;;5111040;28;20291;-81
2021/06/04 05:53:39;;;;;;;21.45;8.77;;;14.80;99.90;;;;;;5113014;28;20182;-79
2021/06/04 05:56:11;;;;;;;14.77;9.48;;;15.00;99.90;;;;;;5112092;28;20194;-81
2021/06/04 05:58:38;;;;;;;16.65;8.75;;;15.10;99.90;;;;;;5110101;28;20783;-80
2021/06/04 06:01:09;;;;;;;18.88;7.80;;;15.20;99.90;;;;;;5105944;28;20194;-81
2021/06/04 06:03:37;;;;;;;28.48;8.68;;;15.20;99.90;;;;;;5109011;28;20174;-81
2021/06/04 06:06:03;;;;;;;24.98;8.43;;;15.30;99.90;;;;;;5107284;28;20188;-81
2021/06/04 06:08:29;;;;;;;22.05;8.38;;;15.40;99.90;;;;;;5105733;28;20182;-81
2021/06/04 06:10:55;;;;;;;24.45;8.32;;;15.50;99.90;;;;;;5107772;28;20234;-82
2021/06/04 06:13:22;;;;;;;17.90;7.55;;;15.60;99.90;;;;;;5106529;28;20185;-81
2021/06/04 06:15:48;;;;;;;31.05;8.07;;;15.60;99.90;;;;;;5095111;28;20214;-81
2021/06/04 06:18:14;;;;;;;16.45;7.43;;;15.70;99.90;;;;;;5107626;28;20204;-81
2021/06/04 06:20:43;;;;;;;19.67;8.25;;;15.80;99.90;;;;;;5109999;28;20185;-81
2021/06/04 06:23:11;;;;;;;19.58;8.52;;;15.90;99.90;;;;;;5110454;28;20182;-83
2021/06/04 06:25:40;;;;;;;21.92;7.90;;;16.00;99.90;;;;;;5111820;28;20260;-81
2021/06/04 06:28:09;;;;;;;13.85;7.80;;;16.00;99.90;;;;;;5111936;28;20264;-80
2021/06/04 06:30:35;;;;;;;23.98;8.63;;;16.10;99.90;;;;;;5111469;28;20264;-82
2021/06/04 06:33:02;;;;;;;19.40;8.45;;;16.30;99.90;;;;;;5111632;28;20253;-82
2021/06/04 06:35:35;;;;;;;12.95;7.13;;;16.40;99.90;;;;;;5111248;28;20343;-81
2021/06/04 06:38:00;;;;;;;18.77;7.70;;;16.40;99.90;;;;;;5110360;28;20630;-81
2021/06/04 06:40:27;;;;;;;17.92;7.22;;;16.60;99.90;;;;;;5097213;28;20193;-79
2021/06/04 06:42:53;;;;;;;15.73;6.75;;;16.70;99.90;;;;;;5110540;28;20588;-81
2021/06/04 06:45:23;;;;;;;13.00;6.18;;;16.80;99.90;;;;;;5110913;28;20194;-81
2021/06/04 06:47:51;;;;;;;12.73;6.30;;;16.90;99.90;;;;;;5111453;28;20205;-81
2021/06/04 06:50:17;;;;;;;11.68;6.10;;;17.00;99.90;;;;;;5102853;28;20191;-81
2021/06/04 06:52:43;;;;;;;14.15;6.63;;;17.10;99.90;;;;;;5106455;28;20269;-81
2021/06/04 06:55:10;;;;;;;10.73;6.47;;;17.30;99.90;;;;;;5108431;28;20772;-81
2021/06/04 06:57:38;;;;;;;11.05;6.72;;;17.40;99.90;;;;;;5105326;28;20212;-80
2021/06/04 07:00:11;;;;;;;10.57;6.38;;;17.60;99.90;;;;;;5112755;28;20190;-81
2021/06/04 07:02:36;;;;;;;12.60;5.97;;;17.80;99.90;;;;;;5112981;28;20181;-81
2021/06/04 07:05:03;;;;;;;13.80;6.07;;;;;;;;;;5113771;28;20198;-81
2021/06/04 07:07:28;;;;;;;15.68;6.18;;;18.00;99.90;;;;;;5095855;28;20566;-81
2021/06/04 07:09:54;;;;;;;10.70;5.72;;;18.20;99.90;;;;;;5130759;27;20186;-81
2021/06/04 07:12:20;;;;;;;17.90;6.13;;;18.30;99.90;;;;;;5112792;28;20230;-81
2021/06/04 07:14:45;;;;;;;10.15;5.40;;;18.50;99.90;;;;;;5115798;28;20194;-80
2021/06/04 07:17:11;;;;;;;22.63;5.93;;;18.60;99.90;;;;;;5116130;28;20182;-81
2021/06/04 07:19:37;;;;;;;10.77;5.72;;;18.70;99.90;;;;;;5115277;28;20174;-81
2021/06/04 07:22:04;;;;;;;11.20;5.55;;;18.90;99.90;;;;;;5115069;28;20314;-81
2021/06/04 07:24:30;;;;;;;12.63;5.68;;;19.10;99.90;;;;;;5116165;28;20185;-81
2021/06/04 07:26:59;;;;;;;7.50;4.88;;;19.10;99.90;;;;;;5116363;28;20178;-81
2021/06/04 07:29:26;;;;;;;14.10;5.20;;;19.20;99.90;;;;;;5114820;28;20177;-81
2021/06/04 07:31:53;;;;;;;15.23;5.70;;;19.40;99.90;;;;;;5116238;28;20181;-81
2021/06/04 07:34:19;;;;;;;10.10;4.80;;;19.50;99.90;;;;;;5115885;28;20180;-82
2021/06/04 07:36:48;;;;;;;12.07;5.30;;;19.60;99.90;;;;;;5116184;28;20530;-81
2021/06/04 07:39:18;;;;;;;10.25;4.95;;;19.80;99.90;;;;;;5097771;28;20185;-81
2021/06/04 07:41:45;;;;;;;12.65;4.47;;;19.90;99.90;;;;;;5115827;28;20169;-81
2021/06/04 07:44:13;;;;;;;13.45;4.20;;;20.20;99.90;;;;;;5114699;28;20197;-81
2021/06/04 07:46:39;;;;;;;10.20;4.05;;;20.30;99.90;;;;;;5115633;28;20227;-80
2021/06/04 07:49:05;;;;;;;5.45;4.28;;;20.50;99.90;;;;;;5114280;28;20257;-80
2021/06/04 07:51:47;;;;;;;13.82;3.63;;;20.70;99.90;;;;;;5114233;28;20278;-81
2021/06/04 07:54:15;;;;;;;6.55;3.55;;;20.90;99.90;;;;;;5114391;28;20184;-81
2021/06/04 07:56:42;;;;;;;5.75;3.15;;;21.10;99.90;;;;;;5115499;28;20181;-81
2021/06/04 07:59:08;;;;;;;4.55;2.85;;;21.20;97.30;;;;;;5115152;28;20269;-81
2021/06/04 08:01:34;;;;;;;6.57;2.90;;;21.40;94.30;;;;;;5115289;28;20189;-82
2021/06/04 08:04:00;;;;;;;2.92;2.63;;;21.50;93.60;;;;;;5115613;28;20174;-81
2021/06/04 08:06:27;;;;;;;7.78;3.20;;;21.70;92.80;;;;;;5115401;28;20209;-82
2021/06/04 08:08:55;;;;;;;5.43;2.80;;;21.90;87.50;;;;;;5114832;28;20642;-81
2021/06/04 08:11:28;;;;;;;7.50;3.10;;;22.00;90.40;;;;;;5115393;28;20213;-83
2021/06/04 08:13:56;;;;;;;6.18;3.20;;;22.30;90.40;;;;;;5114420;28;20314;-81
2021/06/04 08:16:22;;;;;;;6.50;2.50;;;22.40;84.70;;;;;;5114968;28;20212;-83
2021/06/04 08:18:48;;;;;;;5.70;2.92;;;22.50;80.10;;;;;;5115556;28;20184;-81
2021/06/04 08:21:22;;;;;;;6.53;2.97;;;22.70;81.40;;;;;;5115427;28;20541;-81
2021/06/04 08:23:47;;;;;;;6.85;3.90;;;22.70;79.10;;;;;;5114926;28;20531;-81
2021/06/04 08:26:18;;;;;;;10.30;3.63;;;22.60;79.30;;;;;;5113909;28;20177;-81
2021/06/04 08:28:44;;;;;;;10.77;2.78;;;22.60;79.30;;;;;;5114753;28;20269;-81
2021/06/04 08:31:10;;;;;;;6.25;2.85;;;22.60;79.30;;;;;;5114201;28;20264;-81
2021/06/04 08:33:39;;;;;;;9.52;3.58;;;22.70;78.40;;;;;;5114736;28;20223;-82
2021/06/04 08:36:07;;;;;;;29.10;4.90;;;22.70;78.40;;;;;;5115140;28;20229;-80
2021/06/04 08:38:38;;;;;;;37.58;4.15;;;22.70;77.50;;;;;;5114434;28;20227;-82
2021/06/04 08:41:16;;;;;;;9.32;3.33;;;22.70;76.90;;;;;;5113650;28;20173;-81
2021/06/04 08:44:08;;;;;;;7.53;3.30;;;22.60;76.80;;;;;;5114675;28;20154;-81
2021/06/04 08:46:39;;;;;;;7.00;3.50;;;22.60;80.00;;;;;;5114653;28;20166;-81
2021/06/04 08:49:16;;;;;;;12.13;3.90;;;22.80;77.00;;;;;;5115014;27;20158;-80
2021/06/04 08:51:55;;;;;;;2.90;2.53;;;22.80;77.30;;;;;;5114474;28;20170;-80
2021/06/04 08:54:38;;;;;;;9.10;3.50;;;22.90;76.00;;;;;;5114330;28;20174;-80
2021/06/04 08:57:27;;;;;;;5.43;3.13;;;22.90;74.20;;;;;;5114414;28;20166;-80
2021/06/04 08:59:55;;;;;;;11.48;5.43;;;22.90;76.70;;;;;;5114399;28;20154;-80
2021/06/04 09:02:30;;;;;;;10.40;4.50;;;23.00;77.90;;;;;;5114806;28;20185;-80
2021/06/04 09:05:03;;;;;;;6.05;3.03;;;23.10;75.30;;;;;;5114232;28;20630;-81
2021/06/04 09:07:34;;;;;;;7.10;3.10;;;23.00;72.50;;;;;;5114413;28;20188;-81
2021/06/04 09:10:24;;;;;;;15.02;3.25;;;22.90;72.70;;;;;;5114297;28;20177;-81
2021/06/04 09:13:03;;;;;;;6.47;3.50;;;22.90;76.70;;;;;;5114323;28;20232;-81
2021/06/04 09:15:35;;;;;;;8.63;3.55;;;23.10;76.90;;;;;;5114015;28;20204;-81
2021/06/04 09:18:07;;;;;;;6.18;2.97;;;23.10;71.20;;;;;;5114523;28;20165;-80
2021/06/04 09:21:11;;;;;;;8.00;2.83;;;23.10;71.60;;;;;;5113828;28;20250;-81
2021/06/04 09:23:40;;;;;;;5.45;3.35;;;23.10;73.10;;;;;;5050668;28;20600;-79
2021/06/04 09:26:08;;;;;;;5.07;3.55;;;23.20;73.60;;;;;;5102087;28;20546;-82
2021/06/04 09:28:39;;;;;;;7.38;3.28;;;23.40;72.00;;;;;;5113781;28;20174;-80
2021/06/04 09:31:34;;;;;;;5.13;3.05;;;23.40;72.50;;;;;;5114274;28;20164;-80
2021/06/04 09:34:15;;;;;;;7.40;3.25;;;23.60;69.00;;;;;;5112785;28;20224;-81
2021/06/04 09:36:52;;;;;;;3.80;3.08;;;23.90;70.70;;;;;;5112907;28;20645;-81
2021/06/04 09:39:39;;;;;;;4.32;3.35;;;24.10;65.90;;;;;;5113218;28;20169;-81
2021/06/04 09:42:27;;;;;;;3.28;2.90;;;24.10;68.80;;;;;;5113177;28;20249;-81
2021/06/04 09:45:05;;;;;;;3.45;2.92;;;24.20;63.80;;;;;;5112734;28;20345;-81
2021/06/04 09:47:46;;;;;;;8.15;3.58;;;24.10;65.40;;;;;;5111802;28;20621;-80
2021/06/04 09:50:20;;;;;;;4.95;4.28;;;24.20;70.80;;;;;;5112944;28;20614;-81
2021/06/04 09:52:59;;;;;;;6.03;2.95;;;24.60;66.70;;;;;;5112688;28;20179;-80
2021/06/04 09:55:30;;;;;;;3.83;2.80;;;24.50;68.00;;;;;;5110555;28;20276;-83
2021/06/04 09:57:59;;;;;;;6.50;3.65;;;24.50;62.80;;;;;;5111383;28;20172;-80
2021/06/04 10:00:49;;;;;;;5.10;2.97;;;24.60;66.10;;;;;;5111372;28;20181;-81
2021/06/04 10:03:28;;;;;;;3.78;2.85;;;24.50;64.10;;;;;;5112903;28;20162;-82
2021/06/04 10:06:20;;;;;;;4.43;2.83;;;24.20;63.10;;;;;;5112230;28;20181;-82
2021/06/04 10:09:03;;;;;;;4.35;2.80;;;23.90;65.30;;;;;;5111329;28;20245;-80
2021/06/04 10:11:46;;;;;;;5.60;3.00;;;23.50;63.30;;;;;;5112999;28;20225;-81
2021/06/04 10:14:19;;;;;;;7.50;2.90;;;23.20;64.00;;;;;;5111392;28;20170;-81
2021/06/04 10:16:59;;;;;;;3.25;2.88;;;22.90;60.40;;;;;;5110372;28;20315;-82
2021/06/04 10:19:35;;;;;;;6.32;4.38;;;22.80;61.80;;;;;;5111923;28;20184;-82
2021/06/04 10:22:36;;;;;;;7.85;3.30;;;22.70;61.80;;;;;;5110958;28;20173;-82
2021/06/04 10:25:02;;;;;;;8.05;3.28;;;23.00;63.00;;;;;;5108014;28;20468;-81
2021/06/04 10:27:28;;;;;;;2.72;2.53;;;23.60;63.40;;;;;;5111146;28;20223;-82
2021/06/04 10:30:15;;;;;;;8.73;3.22;;;23.90;60.50;;;;;;5110712;28;20281;-82
2021/06/04 10:33:21;;;;;;;7.03;2.60;;;24.40;59.00;;;;;;5113613;28;20150;-82
2021/06/04 10:35:55;;;;;;;9.55;2.60;;;24.70;58.80;;;;;;5101397;28;20205;-82
2021/06/04 10:38:37;;;;;;;8.07;4.53;;;25.00;54.80;;;;;;5115887;28;20169;-82
2021/06/04 10:41:14;;;;;;;3.90;2.25;;;25.00;55.70;;;;;;5115315;28;20539;-83
2021/06/04 10:44:01;;;;;;;2.92;2.40;;;24.80;54.60;;;;;;5114523;28;20556;-83
2021/06/04 10:47:04;;;;;;;3.15;2.28;;;24.70;53.50;;;;;;5116841;28;20180;-82
2021/06/04 10:49:55;;;;;;;4.47;2.55;;;24.40;52.40;;;;;;5114247;28;20646;-81
2021/06/04 10:52:55;;;;;;;4.97;2.63;;;24.20;53.50;;;;;;5108676;28;20186;-81
2021/06/04 10:55:30;;;;;;;3.65;2.60;;;23.90;55.20;;;;;;5082109;28;20262;-80
2021/06/04 10:58:24;;;;;;;5.40;2.40;;;23.70;58.10;;;;;;5114677;28;20180;-82
2021/06/04 11:00:57;;;;;;;8.23;3.67;;;23.70;58.10;;;;;;5113591;28;20174;-81
2021/06/04 11:03:43;;;;;;;5.82;3.13;;;23.70;59.80;;;;;;5114278;28;20638;-82
2021/06/04 11:06:15;;;;;;;3.55;2.72;;;23.60;58.70;;;;;;5114253;28;20180;-81
2021/06/04 11:08:56;;;;;;;6.63;3.22;;;23.50;59.50;;;;;;5114635;28;20534;-82
2021/06/04 11:11:57;;;;;;;6.20;3.22;;;23.30;61.60;;;;;;5116342;28;20217;-81
2021/06/04 11:14:33;;;;;;;4.57;2.75;;;23.20;61.20;;;;;;5036838;28;20187;-82
2021/06/04 11:17:29;;;;;;;5.50;2.60;;;23.10;60.70;;;;;;5107750;28;20292;-81
2021/06/04 11:20:10;;;;;;;5.75;2.65;;;23.00;60.90;;;;;;5114639;28;20174;-81
2021/06/04 11:22:45;;;;;;;6.50;3.00;;;23.00;61.60;;;;;;5116443;28;20253;-80
2021/06/04 11:25:26;;;;;;;9.05;2.80;;;23.00;60.50;;;;;;5116786;28;20168;-81
2021/06/04 11:28:01;;;;;;;6.85;2.85;;;23.40;58.70;;;;;;5116098;28;20185;-81
2021/06/04 11:30:30;;;;;;;2.83;2.50;;;23.70;57.70;;;;;;5114576;28;20197;-82
2021/06/04 11:33:07;;;;;;;5.75;2.83;;;24.00;57.80;;;;;;5115494;28;20257;-80
2021/06/04 11:35:40;;;;;;;8.90;2.60;;;24.00;57.50;;;;;;5115785;28;20197;-81
2021/06/04 11:38:13;;;;;;;6.32;3.45;;;24.00;56.60;;;;;;5115582;28;20209;-82
2021/06/04 11:40:43;;;;;;;4.47;2.92;;;24.00;57.30;;;;;;5115879;28;20154;-82
2021/06/04 11:43:15;;;;;;;4.85;2.40;;;24.00;55.30;;;;;;5115886;28;20163;-82
2021/06/04 11:45:45;;;;;;;3.20;2.17;;;23.90;53.30;;;;;;5115923;28;20173;-82
2021/06/04 11:48:25;;;;;;;4.15;2.30;;;23.90;51.40;;;;;;5115587;28;20243;-82
2021/06/04 11:51:17;;;;;;;3.28;2.33;;;23.90;53.40;;;;;;5115324;28;20642;-81
2021/06/04 11:53:53;;;;;;;3.20;2.10;;;24.00;51.50;;;;;;5115310;28;20231;-81
2021/06/04 11:56:37;;;;;;;3.75;2.35;;;24.20;51.00;;;;;;5116137;28;20218;-82
2021/06/04 11:59:05;;;;;;;8.00;2.72;;;24.40;50.40;;;;;;5115754;28;20181;-82
2021/06/04 12:01:34;;;;;;;4.43;2.20;;;24.60;50.20;;;;;;5115415;28;20181;-81
2021/06/04 12:04:00;;;;;;;5.35;2.50;;;24.70;51.90;;;;;;5115209;28;20166;-81
2021/06/04 12:06:27;;;;;;;8.80;2.20;;;24.90;51.50;;;;;;5115944;28;20185;-80
2021/06/04 12:08:57;;;;;;;4.03;2.20;;;24.80;50.90;;;;;;5114832;28;20181;-80
2021/06/04 12:11:26;;;;;;;4.10;2.17;;;24.70;52.50;;;;;;5115093;28;20230;-80
2021/06/04 12:13:54;;;;;;;5.00;2.65;;;25.00;54.30;;;;;;5114814;28;20633;-82
2021/06/04 12:16:26;;;;;;;4.03;2.58;;;25.30;51.20;;;;;;5113918;28;20288;-83
2021/06/04 12:18:59;;;;;;;3.08;2.17;;;25.40;49.30;;;;;;5113904;28;20261;-83
2021/06/04 12:21:45;;;;;;;5.88;3.03;;;25.20;48.40;;;;;;5113965;28;20623;-83
2021/06/04 12:24:19;;;;;;;7.00;2.40;;;25.20;51.60;;;;;;5112645;28;20166;-83
2021/06/04 12:27:06;;;;;;;7.32;2.42;;;24.80;51.00;;;;;;5113165;28;20178;-84
2021/06/04 12:29:32;;;;;;;3.80;2.10;;;25.60;50.30;;;;;;5113778;28;20162;-83
2021/06/04 12:31:59;;;;;;;8.40;2.22;;;25.60;49.00;;;;;;5112126;28;20185;-83
2021/06/04 12:34:38;;;;;;;2.70;1.80;;;25.40;47.00;;;;;;5113431;28;20253;-83
2021/06/04 12:37:25;;;;;;;2.10;1.90;;;25.20;45.20;;;;;;5112258;28;20200;-84
2021/06/04 12:39:53;;;;;;;4.40;2.25;;;25.00;44.50;;;;;;5108200;28;20207;-84
2021/06/04 12:42:25;;;;;;;2.22;1.77;;;25.10;42.10;;;;;;5111952;28;20202;-83
2021/06/04 12:45:16;;;;;;;2.08;1.88;;;25.20;43.40;;;;;;5111711;28;20181;-83
2021/06/04 12:48:09;;;;;;;1.75;1.63;;;25.10;42.50;;;;;;5112676;28;20178;-84
2021/06/04 12:50:37;;;;;;;5.90;2.10;;;25.00;42.80;;;;;;5114816;28;20166;-84
2021/06/04 12:53:14;;;;;;;3.30;2.47;;;24.80;42.20;;;;;;5116754;28;20708;-83
2021/06/04 12:55:43;;;;;;;2.28;1.92;;;24.80;44.80;;;;;;5116434;28;20272;-83
2021/06/04 12:58:15;;;;;;;4.22;2.05;;;24.80;45.00;;;;;;5113626;28;20177;-83
2021/06/04 13:00:42;;;;;;;2.88;2.35;;;24.70;47.20;;;;;;5113199;28;20176;-83
2021/06/04 13:03:14;;;;;;;7.63;2.50;;;24.70;49.80;;;;;;5112540;28;20536;-83
2021/06/04 13:05:46;;;;;;;3.95;2.50;;;24.70;50.80;;;;;;5112599;28;20250;-83